sensor_id;sensor_type;location;lat;lon;timestamp;pressure;altitude;pressure_sealevel;temperature;humidity
68230;BME280;55048;52.220;5.160;2023-04-27T00:01:41;102072.75;;;6.45;69.96
68230;BME280;55048;52.220;5.160;2023-04-27T00:04:07;102033.19;;;6.14;69.53
68230;BME280;55048;52.220;5.160;2023-04-27T00:06:32;102017.41;;;6.06;69.78
68230;BME280;55048;52.220;5.160;2023-04-27T00:08:59;102064.69;;;6.38;69.74
68230;BME280;55048;52.220;5.160;2023-04-27T00:11:24;102052.16;;;6.18;69.71
68230;BME280;55048;52.220;5.160;2023-04-27T00:13:50;102073.16;;;6.34;69.94
68230;BME280;55048;52.220;5.160;2023-04-27T00:16:16;102058.06;;;6.20;69.74
68230;BME280;55048;52.220;5.160;2023-04-27T00:18:41;102055.00;;;6.16;69.96
68230;BME280;55048;52.220;5.160;2023-04-27T00:21:08;102033.69;;;5.95;69.99
68230;BME280;55048;52.220;5.160;2023-04-27T00:23:33;102023.94;;;5.95;70.35
68230;BME280;55048;52.220;5.160;2023-04-27T00:26:00;102007.91;;;5.74;70.65
68230;BME280;55048;52.220;5.160;2023-04-27T00:28:25;102057.41;;;6.03;70.70
68230;BME280;55048;52.220;5.160;2023-04-27T00:30:51;102035.00;;;5.91;70.83
68230;BME280;55048;52.220;5.160;2023-04-27T00:33:19;101956.97;;;5.42;71.08
68230;BME280;55048;52.220;5.160;2023-04-27T00:35:46;102009.41;;;5.68;71.03
68230;BME280;55048;52.220;5.160;2023-04-27T00:38:12;102016.53;;;5.59;71.30
68230;BME280;55048;52.220;5.160;2023-04-27T00:40:38;102026.69;;;5.79;71.71
68230;BME280;55048;52.220;5.160;2023-04-27T00:43:04;102016.03;;;5.64;71.81
68230;BME280;55048;52.220;5.160;2023-04-27T00:45:29;101987.59;;;5.51;71.47
68230;BME280;55048;52.220;5.160;2023-04-27T00:47:55;101955.97;;;5.12;71.80
68230;BME280;55048;52.220;5.160;2023-04-27T00:50:27;101958.06;;;5.25;71.70
68230;BME280;55048;52.220;5.160;2023-04-27T00:52:56;102066.44;;;5.77;71.90
68230;BME280;55048;52.220;5.160;2023-04-27T00:55:22;101942.47;;;5.15;72.03
68230;BME280;55048;52.220;5.160;2023-04-27T00:57:48;101941.66;;;5.15;72.02
68230;BME280;55048;52.220;5.160;2023-04-27T01:00:13;101977.81;;;5.29;71.80
68230;BME280;55048;52.220;5.160;2023-04-27T01:02:40;102049.53;;;5.86;72.32
68230;BME280;55048;52.220;5.160;2023-04-27T01:05:06;101817.34;;;4.32;72.14
68230;BME280;55048;52.220;5.160;2023-04-27T01:07:36;102046.19;;;5.70;72.30
68230;BME280;55048;52.220;5.160;2023-04-27T01:10:02;101655.53;;;3.33;72.44
68230;BME280;55048;52.220;5.160;2023-04-27T01:12:28;101730.22;;;3.72;72.75
68230;BME280;55048;52.220;5.160;2023-04-27T01:14:53;102055.59;;;5.64;72.64
68230;BME280;55048;52.220;5.160;2023-04-27T01:17:18;102053.69;;;5.58;72.83
68230;BME280;55048;52.220;5.160;2023-04-27T01:19:44;101974.81;;;5.09;72.77
68230;BME280;55048;52.220;5.160;2023-04-27T01:22:09;101760.13;;;3.79;72.90
68230;BME280;55048;52.220;5.160;2023-04-27T01:24:34;101979.06;;;5.10;72.77
68230;BME280;55048;52.220;5.160;2023-04-27T01:27:03;101959.34;;;4.98;72.93
68230;BME280;55048;52.220;5.160;2023-04-27T01:29:29;102010.19;;;5.15;72.95
68230;BME280;55048;52.220;5.160;2023-04-27T01:31:54;101916.19;;;4.59;73.25
68230;BME280;55048;52.220;5.160;2023-04-27T01:34:21;102041.94;;;5.29;73.09
68230;BME280;55048;52.220;5.160;2023-04-27T01:36:46;102011.50;;;5.19;72.65
68230;BME280;55048;52.220;5.160;2023-04-27T01:39:13;101892.06;;;4.40;73.03
68230;BME280;55048;52.220;5.160;2023-04-27T01:41:39;102034.53;;;5.33;72.89
68230;BME280;55048;52.220;5.160;2023-04-27T01:44:05;102014.56;;;5.30;73.21
68230;BME280;55048;52.220;5.160;2023-04-27T01:46:31;101970.78;;;4.90;73.29
68230;BME280;55048;52.220;5.160;2023-04-27T01:48:56;101924.06;;;4.68;73.78
68230;BME280;55048;52.220;5.160;2023-04-27T01:51:22;101934.44;;;4.69;73.69
68230;BME280;55048;52.220;5.160;2023-04-27T01:53:48;102030.41;;;5.30;73.72
68230;BME280;55048;52.220;5.160;2023-04-27T01:56:14;101934.81;;;4.58;73.43
68230;BME280;55048;52.220;5.160;2023-04-27T01:58:40;102033.03;;;5.30;73.46
68230;BME280;55048;52.220;5.160;2023-04-27T02:01:06;101577.66;;;2.36;73.47
68230;BME280;55048;52.220;5.160;2023-04-27T02:03:32;102019.13;;;5.14;74.04
68230;BME280;55048;52.220;5.160;2023-04-27T02:05:57;101743.09;;;3.34;74.13
68230;BME280;55048;52.220;5.160;2023-04-27T02:08:22;101905.75;;;4.27;74.25
68230;BME280;55048;52.220;5.160;2023-04-27T02:10:48;102042.19;;;5.11;74.50
68230;BME280;55048;52.220;5.160;2023-04-27T02:13:15;101895.22;;;4.19;74.25
68230;BME280;55048;52.220;5.160;2023-04-27T02:15:41;102014.59;;;4.91;74.21
68230;BME280;55048;52.220;5.160;2023-04-27T02:18:06;101928.56;;;4.43;74.28
68230;BME280;55048;52.220;5.160;2023-04-27T02:20:32;101961.66;;;4.53;74.60
68230;BME280;55048;52.220;5.160;2023-04-27T02:22:59;102024.47;;;4.89;74.76
68230;BME280;55048;52.220;5.160;2023-04-27T02:25:25;102012.78;;;4.83;75.29
68230;BME280;55048;52.220;5.160;2023-04-27T02:27:51;101988.44;;;4.65;75.14
68230;BME280;55048;52.220;5.160;2023-04-27T02:30:16;101980.56;;;4.65;75.07
68230;BME280;55048;52.220;5.160;2023-04-27T02:32:41;101982.53;;;4.71;75.02
68230;BME280;55048;52.220;5.160;2023-04-27T02:35:08;101898.38;;;4.14;74.70
68230;BME280;55048;52.220;5.160;2023-04-27T02:37:34;101938.47;;;4.41;74.60
68230;BME280;55048;52.220;5.160;2023-04-27T02:40:00;102014.41;;;4.84;74.79
68230;BME280;55048;52.220;5.160;2023-04-27T02:42:25;101791.09;;;3.52;74.28
68230;BME280;55048;52.220;5.160;2023-04-27T02:44:51;101794.06;;;3.33;74.60
68230;BME280;55048;52.220;5.160;2023-04-27T02:47:17;101693.53;;;2.66;74.56
68230;BME280;55048;52.220;5.160;2023-04-27T02:49:42;101820.19;;;3.59;74.75
68230;BME280;55048;52.220;5.160;2023-04-27T02:52:08;101927.50;;;4.13;75.03
68230;BME280;55048;52.220;5.160;2023-04-27T02:54:33;101669.56;;;2.61;75.08
68230;BME280;55048;52.220;5.160;2023-04-27T02:56:59;101934.91;;;4.17;74.92
68230;BME280;55048;52.220;5.160;2023-04-27T02:59:25;101874.22;;;3.86;74.77
68230;BME280;55048;52.220;5.160;2023-04-27T03:01:50;101971.91;;;4.40;74.84
68230;BME280;55048;52.220;5.160;2023-04-27T03:04:16;101953.66;;;4.30;74.87
68230;BME280;55048;52.220;5.160;2023-04-27T03:06:44;101974.22;;;4.35;74.69
68230;BME280;55048;52.220;5.160;2023-04-27T03:09:10;101945.09;;;4.20;74.66
68230;BME280;55048;52.220;5.160;2023-04-27T03:11:35;101966.00;;;4.30;74.43
68230;BME280;55048;52.220;5.160;2023-04-27T03:14:03;102023.38;;;4.67;74.44
68230;BME280;55048;52.220;5.160;2023-04-27T03:16:33;102023.53;;;4.66;74.60
68230;BME280;55048;52.220;5.160;2023-04-27T03:18:59;102017.97;;;4.52;74.64
68230;BME280;55048;52.220;5.160;2023-04-27T03:21:24;101992.28;;;4.38;74.53
68230;BME280;55048;52.220;5.160;2023-04-27T03:23:50;102016.50;;;4.50;74.36
68230;BME280;55048;52.220;5.160;2023-04-27T03:26:16;102001.88;;;4.39;74.30
68230;BME280;55048;52.220;5.160;2023-04-27T03:28:41;102004.19;;;4.34;74.27
68230;BME280;55048;52.220;5.160;2023-04-27T03:31:08;101946.09;;;4.03;74.22
68230;BME280;55048;52.220;5.160;2023-04-27T03:33:34;101914.53;;;3.87;74.14
68230;BME280;55048;52.220;5.160;2023-04-27T03:36:02;101938.38;;;4.01;74.36
68230;BME280;55048;52.220;5.160;2023-04-27T03:38:29;102023.25;;;4.52;74.30
68230;BME280;55048;52.220;5.160;2023-04-27T03:40:55;101960.09;;;4.12;74.36
68230;BME280;55048;52.220;5.160;2023-04-27T03:43:23;101875.72;;;3.48;74.54
68230;BME280;55048;52.220;5.160;2023-04-27T03:45:49;101977.84;;;4.09;74.67
68230;BME280;55048;52.220;5.160;2023-04-27T03:48:15;102025.72;;;4.38;74.81
68230;BME280;55048;52.220;5.160;2023-04-27T03:50:42;101661.72;;;1.94;74.40
68230;BME280;55048;52.220;5.160;2023-04-27T03:53:07;102039.38;;;4.33;75.10
68230;BME280;55048;52.220;5.160;2023-04-27T03:55:33;101864.03;;;3.10;75.09
68230;BME280;55048;52.220;5.160;2023-04-27T03:57:58;101967.16;;;3.87;74.93
68230;BME280;55048;52.220;5.160;2023-04-27T04:00:24;102031.16;;;4.28;75.07
68230;BME280;55048;52.220;5.160;2023-04-27T04:02:51;102043.16;;;4.14;74.93
68230;BME280;55048;52.220;5.160;2023-04-27T04:05:17;101979.97;;;3.81;74.98
68230;BME280;55048;52.220;5.160;2023-04-27T04:07:43;101950.53;;;3.62;75.02
68230;BME280;55048;52.220;5.160;2023-04-27T04:10:09;102037.91;;;4.14;75.15
68230;BME280;55048;52.220;5.160;2023-04-27T04:12:36;101989.53;;;3.82;74.95
68230;BME280;55048;52.220;5.160;2023-04-27T04:15:02;102035.28;;;4.22;75.17
68230;BME280;55048;52.220;5.160;2023-04-27T04:17:28;101938.88;;;3.56;75.06
68230;BME280;55048;52.220;5.160;2023-04-27T04:19:54;101912.06;;;3.36;74.76
68230;BME280;55048;52.220;5.160;2023-04-27T04:22:20;101907.13;;;3.33;74.84
68230;BME280;55048;52.220;5.160;2023-04-27T04:24:45;101938.84;;;3.48;75.05
68230;BME280;55048;52.220;5.160;2023-04-27T04:27:11;101969.09;;;3.52;74.95
68230;BME280;55048;52.220;5.160;2023-04-27T04:29:37;102024.56;;;3.75;75.33
68230;BME280;55048;52.220;5.160;2023-04-27T04:32:03;102051.88;;;4.15;75.29
68230;BME280;55048;52.220;5.160;2023-04-27T04:34:29;101960.25;;;3.61;75.33
68230;BME280;55048;52.220;5.160;2023-04-27T04:36:54;101974.72;;;3.65;74.98
68230;BME280;55048;52.220;5.160;2023-04-27T04:39:22;102020.47;;;3.97;75.45
68230;BME280;55048;52.220;5.160;2023-04-27T04:41:48;102057.50;;;4.20;75.21
68230;BME280;55048;52.220;5.160;2023-04-27T04:44:15;101943.28;;;3.47;75.48
68230;BME280;55048;52.220;5.160;2023-04-27T04:46:41;102065.06;;;4.23;75.50
68230;BME280;55048;52.220;5.160;2023-04-27T04:49:07;101950.19;;;3.48;75.23
68230;BME280;55048;52.220;5.160;2023-04-27T04:51:32;102057.00;;;4.16;75.26
68230;BME280;55048;52.220;5.160;2023-04-27T04:53:57;102066.88;;;4.30;75.25
68230;BME280;55048;52.220;5.160;2023-04-27T04:56:23;102053.06;;;4.20;75.49
68230;BME280;55048;52.220;5.160;2023-04-27T04:58:48;102047.78;;;4.12;75.39
68230;BME280;55048;52.220;5.160;2023-04-27T05:01:14;102067.84;;;4.38;75.34
68230;BME280;55048;52.220;5.160;2023-04-27T05:03:40;101806.34;;;2.75;74.98
68230;BME280;55048;52.220;5.160;2023-04-27T05:06:05;102018.66;;;4.14;75.25
68230;BME280;55048;52.220;5.160;2023-04-27T05:08:31;101775.94;;;2.73;75.57
68230;BME280;55048;52.220;5.160;2023-04-27T05:10:56;102069.19;;;4.50;75.54
68230;BME280;55048;52.220;5.160;2023-04-27T05:13:22;102010.75;;;4.14;75.34
68230;BME280;55048;52.220;5.160;2023-04-27T05:15:49;101930.66;;;3.59;75.10
68230;BME280;55048;52.220;5.160;2023-04-27T05:18:16;102045.81;;;4.39;75.08
68230;BME280;55048;52.220;5.160;2023-04-27T05:20:41;102006.47;;;4.29;75.32
68230;BME280;55048;52.220;5.160;2023-04-27T05:23:07;102072.81;;;4.57;75.13
68230;BME280;55048;52.220;5.160;2023-04-27T05:25:33;102077.03;;;4.74;74.98
68230;BME280;55048;52.220;5.160;2023-04-27T05:27:58;102001.53;;;4.26;75.17
68230;BME280;55048;52.220;5.160;2023-04-27T05:30:24;102073.59;;;4.66;75.38
68230;BME280;55048;52.220;5.160;2023-04-27T05:32:49;102052.22;;;4.52;75.65
68230;BME280;55048;52.220;5.160;2023-04-27T05:35:15;102013.06;;;4.25;75.54
68230;BME280;55048;52.220;5.160;2023-04-27T05:37:41;102111.81;;;4.70;75.25
68230;BME280;55048;52.220;5.160;2023-04-27T05:40:07;101826.75;;;3.14;75.26
68230;BME280;55048;52.220;5.160;2023-04-27T05:42:36;101862.41;;;3.49;75.14
68230;BME280;55048;52.220;5.160;2023-04-27T05:45:02;102073.34;;;5.08;74.93
68230;BME280;55048;52.220;5.160;2023-04-27T05:47:29;102046.22;;;4.91;74.79
68230;BME280;55048;52.220;5.160;2023-04-27T05:49:54;102013.47;;;4.69;75.05
68230;BME280;55048;52.220;5.160;2023-04-27T05:52:20;102078.44;;;5.18;74.98
68230;BME280;55048;52.220;5.160;2023-04-27T05:54:49;102000.66;;;5.14;75.56
68230;BME280;55048;52.220;5.160;2023-04-27T05:57:15;102075.16;;;6.32;74.74
68230;BME280;55048;52.220;5.160;2023-04-27T05:59:41;102071.28;;;6.95;72.95
68230;BME280;55048;52.220;5.160;2023-04-27T06:02:07;102072.28;;;7.60;72.06
68230;BME280;55048;52.220;5.160;2023-04-27T06:04:33;101800.28;;;6.40;70.04
68230;BME280;55048;52.220;5.160;2023-04-27T06:07:00;101756.22;;;6.62;69.21
68230;BME280;55048;52.220;5.160;2023-04-27T06:09:29;101956.97;;;8.00;68.18
68230;BME280;55048;52.220;5.160;2023-04-27T06:11:55;102067.53;;;8.90;67.74
68230;BME280;55048;52.220;5.160;2023-04-27T06:14:22;101999.75;;;8.47;67.08
68230;BME280;55048;52.220;5.160;2023-04-27T06:16:48;101791.84;;;7.30;66.45
68230;BME280;55048;52.220;5.160;2023-04-27T06:19:13;102053.91;;;8.93;66.05
68230;BME280;55048;52.220;5.160;2023-04-27T06:21:38;101997.13;;;8.53;65.23
68230;BME280;55048;52.220;5.160;2023-04-27T06:24:04;102019.69;;;8.71;64.96
68230;BME280;55048;52.220;5.160;2023-04-27T06:26:29;101863.97;;;7.39;64.31
68230;BME280;55048;52.220;5.160;2023-04-27T06:28:55;102008.81;;;8.59;64.38
68230;BME280;55048;52.220;5.160;2023-04-27T06:31:20;102004.75;;;8.63;63.60
68230;BME280;55048;52.220;5.160;2023-04-27T06:33:46;101998.13;;;8.46;63.37
68230;BME280;55048;52.220;5.160;2023-04-27T06:36:11;101835.94;;;7.45;62.54
68230;BME280;55048;52.220;5.160;2023-04-27T06:38:37;101972.25;;;8.26;62.63
68230;BME280;55048;52.220;5.160;2023-04-27T06:41:02;102030.19;;;8.57;62.43
68230;BME280;55048;52.220;5.160;2023-04-27T06:43:28;101830.16;;;7.34;61.89
68230;BME280;55048;52.220;5.160;2023-04-27T06:45:54;101815.22;;;7.27;61.44
68230;BME280;55048;52.220;5.160;2023-04-27T06:48:20;101985.69;;;8.25;61.09
68230;BME280;55048;52.220;5.160;2023-04-27T06:50:45;101973.78;;;8.14;60.54
68230;BME280;55048;52.220;5.160;2023-04-27T06:53:11;101829.38;;;7.40;60.72
68230;BME280;55048;52.220;5.160;2023-04-27T06:55:37;102037.88;;;8.74;60.41
68230;BME280;55048;52.220;5.160;2023-04-27T06:58:03;101639.59;;;6.29;60.28
68230;BME280;55048;52.220;5.160;2023-04-27T07:00:28;101949.16;;;8.41;60.08
68230;BME280;55048;52.220;5.160;2023-04-27T07:02:54;101894.06;;;8.09;59.85
68230;BME280;55048;52.220;5.160;2023-04-27T07:05:19;101807.59;;;7.66;59.49
68230;BME280;55048;52.220;5.160;2023-04-27T07:07:45;102054.28;;;9.32;58.60
68230;BME280;55048;52.220;5.160;2023-04-27T07:10:10;102063.69;;;9.34;58.20
68230;BME280;55048;52.220;5.160;2023-04-27T07:12:36;101881.78;;;8.36;57.66
68230;BME280;55048;52.220;5.160;2023-04-27T07:15:03;101759.81;;;7.81;56.93
68230;BME280;55048;52.220;5.160;2023-04-27T07:17:30;101979.78;;;9.40;55.87
68230;BME280;55048;52.220;5.160;2023-04-27T07:19:56;102092.31;;;10.20;56.27
68230;BME280;55048;52.220;5.160;2023-04-27T07:22:21;102079.47;;;10.17;54.24
68230;BME280;55048;52.220;5.160;2023-04-27T07:24:47;102079.44;;;10.10;55.19
68230;BME280;55048;52.220;5.160;2023-04-27T07:27:12;102018.28;;;9.97;54.62
68230;BME280;55048;52.220;5.160;2023-04-27T07:29:39;102079.88;;;10.54;54.21
68230;BME280;55048;52.220;5.160;2023-04-27T07:32:06;102076.81;;;10.70;53.75
68230;BME280;55048;52.220;5.160;2023-04-27T07:34:31;101957.78;;;9.92;52.92
68230;BME280;55048;52.220;5.160;2023-04-27T07:36:57;101946.53;;;10.04;52.22
68230;BME280;55048;52.220;5.160;2023-04-27T07:39:22;102037.53;;;10.65;51.72
68230;BME280;55048;52.220;5.160;2023-04-27T07:41:48;101904.25;;;9.89;51.21
68230;BME280;55048;52.220;5.160;2023-04-27T07:44:16;102056.53;;;10.82;49.55
68230;BME280;55048;52.220;5.160;2023-04-27T07:46:41;102007.63;;;10.70;50.54
68230;BME280;55048;52.220;5.160;2023-04-27T07:49:07;102059.34;;;11.07;50.11
68230;BME280;55048;52.220;5.160;2023-04-27T07:51:33;102024.53;;;10.95;50.28
68230;BME280;55048;52.220;5.160;2023-04-27T07:53:59;101996.13;;;10.89;50.13
68230;BME280;55048;52.220;5.160;2023-04-27T07:56:24;102063.50;;;11.48;49.44
68230;BME280;55048;52.220;5.160;2023-04-27T07:58:50;102074.75;;;11.50;48.79
68230;BME280;55048;52.220;5.160;2023-04-27T08:01:16;102054.28;;;11.44;48.45
68230;BME280;55048;52.220;5.160;2023-04-27T08:03:41;101982.94;;;11.08;48.29
68230;BME280;55048;52.220;5.160;2023-04-27T08:06:06;102048.03;;;11.63;47.67
68230;BME280;55048;52.220;5.160;2023-04-27T08:08:32;102032.03;;;11.63;47.96
68230;BME280;55048;52.220;5.160;2023-04-27T08:10:57;101971.78;;;11.31;47.90
68230;BME280;55048;52.220;5.160;2023-04-27T08:13:23;102031.50;;;11.80;47.51
68230;BME280;55048;52.220;5.160;2023-04-27T08:15:49;101962.44;;;11.46;47.00
68230;BME280;55048;52.220;5.160;2023-04-27T08:18:15;102070.56;;;12.06;46.36
68230;BME280;55048;52.220;5.160;2023-04-27T08:20:42;101950.56;;;11.49;46.75
68230;BME280;55048;52.220;5.160;2023-04-27T08:23:08;102005.84;;;11.92;45.42
68230;BME280;55048;52.220;5.160;2023-04-27T08:25:35;102059.72;;;12.25;45.27
68230;BME280;55048;52.220;5.160;2023-04-27T08:28:00;102036.19;;;12.22;44.86
68230;BME280;55048;52.220;5.160;2023-04-27T08:30:26;102058.69;;;12.51;44.68
68230;BME280;55048;52.220;5.160;2023-04-27T08:32:51;102020.91;;;12.30;44.69
68230;BME280;55048;52.220;5.160;2023-04-27T08:35:18;101993.47;;;12.04;44.25
68230;BME280;55048;52.220;5.160;2023-04-27T08:37:44;102016.91;;;12.20;44.47
68230;BME280;55048;52.220;5.160;2023-04-27T08:40:10;102090.94;;;12.50;43.90
68230;BME280;55048;52.220;5.160;2023-04-27T08:42:35;101821.91;;;11.17;44.21
68230;BME280;55048;52.220;5.160;2023-04-27T08:45:01;102031.56;;;12.36;42.26
68230;BME280;55048;52.220;5.160;2023-04-27T08:47:26;102052.88;;;12.61;43.49
68230;BME280;55048;52.220;5.160;2023-04-27T08:49:52;102006.66;;;12.42;43.03
68230;BME280;55048;52.220;5.160;2023-04-27T08:52:17;102059.19;;;12.85;43.09
68230;BME280;55048;52.220;5.160;2023-04-27T08:54:43;101904.00;;;12.08;43.05
68230;BME280;55048;52.220;5.160;2023-04-27T08:57:13;102058.19;;;13.23;42.09
68230;BME280;55048;52.220;5.160;2023-04-27T08:59:39;102051.13;;;13.28;42.06
68230;BME280;55048;52.220;5.160;2023-04-27T09:02:05;101962.78;;;12.75;42.03
68230;BME280;55048;52.220;5.160;2023-04-27T09:04:40;102061.34;;;13.50;40.96
68230;BME280;55048;52.220;5.160;2023-04-27T09:07:16;102057.06;;;13.61;41.56
68230;BME280;55048;52.220;5.160;2023-04-27T09:09:42;101801.03;;;12.07;40.64
68230;BME280;55048;52.220;5.160;2023-04-27T09:12:19;102056.63;;;13.64;39.72
68230;BME280;55048;52.220;5.160;2023-04-27T09:14:59;102049.47;;;13.76;40.71
68230;BME280;55048;52.220;5.160;2023-04-27T09:17:26;102000.63;;;13.69;40.89
68230;BME280;55048;52.220;5.160;2023-04-27T09:19:52;101828.53;;;12.74;40.45
68230;BME280;55048;52.220;5.160;2023-04-27T09:22:17;102014.78;;;13.99;40.67
68230;BME280;55048;52.220;5.160;2023-04-27T09:24:50;101992.31;;;14.00;38.52
68230;BME280;55048;52.220;5.160;2023-04-27T09:27:20;101993.00;;;13.96;38.95
68230;BME280;55048;52.220;5.160;2023-04-27T09:29:46;102040.16;;;14.44;39.35
68230;BME280;55048;52.220;5.160;2023-04-27T09:32:15;102052.06;;;14.60;39.26
68230;BME280;55048;52.220;5.160;2023-04-27T09:34:41;102024.78;;;14.39;37.30
68230;BME280;55048;52.220;5.160;2023-04-27T09:37:06;101956.06;;;14.04;37.74
68230;BME280;55048;52.220;5.160;2023-04-27T09:39:32;101998.75;;;14.23;37.40
68230;BME280;55048;52.220;5.160;2023-04-27T09:41:58;102048.25;;;14.56;37.46
68230;BME280;55048;52.220;5.160;2023-04-27T09:44:25;101743.19;;;12.68;36.98
68230;BME280;55048;52.220;5.160;2023-04-27T09:46:54;102039.47;;;14.72;37.20
68230;BME280;55048;52.220;5.160;2023-04-27T09:49:20;101969.75;;;14.43;37.18
68230;BME280;55048;52.220;5.160;2023-04-27T09:51:47;101991.41;;;14.65;36.59
68230;BME280;55048;52.220;5.160;2023-04-27T09:54:13;101970.00;;;14.65;36.67
68230;BME280;55048;52.220;5.160;2023-04-27T09:56:59;102030.03;;;14.93;36.45
68230;BME280;55048;52.220;5.160;2023-04-27T10:01:58;102028.72;;;15.07;35.66
68230;BME280;55048;52.220;5.160;2023-04-27T10:04:35;102025.63;;;15.15;35.81
68230;BME280;55048;52.220;5.160;2023-04-27T10:07:07;102038.69;;;15.23;35.91
68230;BME280;55048;52.220;5.160;2023-04-27T10:09:36;102012.75;;;15.12;36.04
68230;BME280;55048;52.220;5.160;2023-04-27T10:12:15;102032.03;;;15.26;35.45
68230;BME280;55048;52.220;5.160;2023-04-27T10:14:55;101906.78;;;14.41;35.27
68230;BME280;55048;52.220;5.160;2023-04-27T10:17:29;101991.22;;;15.07;35.42
68230;BME280;55048;52.220;5.160;2023-04-27T10:20:00;101928.69;;;14.61;34.86
68230;BME280;55048;52.220;5.160;2023-04-27T10:22:43;102024.03;;;15.14;35.01
68230;BME280;55048;52.220;5.160;2023-04-27T10:25:24;102009.63;;;14.92;35.06
68230;BME280;55048;52.220;5.160;2023-04-27T10:27:56;102016.19;;;14.84;35.09
68230;BME280;55048;52.220;5.160;2023-04-27T10:30:23;101998.59;;;14.76;35.17
68230;BME280;55048;52.220;5.160;2023-04-27T10:32:54;102035.16;;;14.83;36.09
68230;BME280;55048;52.220;5.160;2023-04-27T10:35:21;101885.00;;;13.97;35.82
68230;BME280;55048;52.220;5.160;2023-04-27T10:37:47;101999.41;;;14.89;35.79
68230;BME280;55048;52.220;5.160;2023-04-27T10:40:14;101985.22;;;14.88;35.54
68230;BME280;55048;52.220;5.160;2023-04-27T10:45:11;102020.41;;;15.20;35.70
68230;BME280;55048;52.220;5.160;2023-04-27T10:47:38;102021.31;;;15.26;35.57
68230;BME280;55048;52.220;5.160;2023-04-27T10:50:05;102027.06;;;15.46;34.79
68230;BME280;55048;52.220;5.160;2023-04-27T10:52:30;101973.97;;;15.31;34.58
68230;BME280;55048;52.220;5.160;2023-04-27T10:54:56;101878.97;;;14.65;34.44
68230;BME280;55048;52.220;5.160;2023-04-27T10:57:22;102006.31;;;15.70;34.34
68230;BME280;55048;52.220;5.160;2023-04-27T10:59:52;102018.38;;;15.85;34.09
68230;BME280;55048;52.220;5.160;2023-04-27T11:02:27;101992.53;;;15.78;34.20
68230;BME280;55048;52.220;5.160;2023-04-27T11:04:54;101984.31;;;15.68;33.61
68230;BME280;55048;52.220;5.160;2023-04-27T11:07:24;102021.00;;;15.96;33.89
68230;BME280;55048;52.220;5.160;2023-04-27T11:09:50;101979.78;;;15.86;33.66
68230;BME280;55048;52.220;5.160;2023-04-27T11:12:16;101980.28;;;15.99;34.23
68230;BME280;55048;52.220;5.160;2023-04-27T11:14:42;101975.13;;;16.15;34.46
68230;BME280;55048;52.220;5.160;2023-04-27T11:17:08;101972.00;;;16.40;33.80
68230;BME280;55048;52.220;5.160;2023-04-27T11:19:43;101969.31;;;16.40;33.65
68230;BME280;55048;52.220;5.160;2023-04-27T11:22:09;101982.44;;;16.58;33.74
68230;BME280;55048;52.220;5.160;2023-04-27T11:24:34;101959.38;;;16.40;33.30
68230;BME280;55048;52.220;5.160;2023-04-27T11:27:00;101973.50;;;16.52;32.88
68230;BME280;55048;52.220;5.160;2023-04-27T11:29:25;101897.69;;;16.23;33.16
68230;BME280;55048;52.220;5.160;2023-04-27T11:32:01;101957.50;;;16.79;33.26
68230;BME280;55048;52.220;5.160;2023-04-27T11:34:28;101927.66;;;16.59;33.38
68230;BME280;55048;52.220;5.160;2023-04-27T11:37:02;101971.75;;;16.63;31.68
68230;BME280;55048;52.220;5.160;2023-04-27T11:39:36;101956.47;;;16.64;32.48
68230;BME280;55048;52.220;5.160;2023-04-27T11:47:27;101945.84;;;16.52;33.66
68230;BME280;55048;52.220;5.160;2023-04-27T11:49:57;101964.97;;;16.55;32.92
68230;BME280;55048;52.220;5.160;2023-04-27T11:52:31;101962.31;;;16.39;32.62
68230;BME280;55048;52.220;5.160;2023-04-27T11:54:58;101947.91;;;16.45;33.34
68230;BME280;55048;52.220;5.160;2023-04-27T11:57:29;101935.47;;;16.39;32.73
68230;BME280;55048;52.220;5.160;2023-04-27T11:59:57;101934.28;;;16.29;32.58
68230;BME280;55048;52.220;5.160;2023-04-27T12:02:25;101960.34;;;16.51;33.37
68230;BME280;55048;52.220;5.160;2023-04-27T12:04:51;101954.53;;;16.59;33.08
68230;BME280;55048;52.220;5.160;2023-04-27T12:07:17;101965.50;;;16.74;32.73
68230;BME280;55048;52.220;5.160;2023-04-27T12:09:42;101899.44;;;16.35;32.61
68230;BME280;55048;52.220;5.160;2023-04-27T12:12:09;101947.75;;;16.73;32.29
68230;BME280;55048;52.220;5.160;2023-04-27T12:14:35;101926.25;;;16.73;32.16
68230;BME280;55048;52.220;5.160;2023-04-27T12:17:01;101909.81;;;16.70;31.92
68230;BME280;55048;52.220;5.160;2023-04-27T12:19:27;101949.59;;;17.17;32.00
68230;BME280;55048;52.220;5.160;2023-04-27T12:21:52;101909.03;;;16.96;31.92
68230;BME280;55048;52.220;5.160;2023-04-27T12:24:18;101951.53;;;17.21;32.16
68230;BME280;55048;52.220;5.160;2023-04-27T12:26:44;101928.94;;;16.95;32.17
68230;BME280;55048;52.220;5.160;2023-04-27T12:29:11;101929.41;;;16.92;32.49
68230;BME280;55048;52.220;5.160;2023-04-27T12:31:36;101904.69;;;16.90;32.64
68230;BME280;55048;52.220;5.160;2023-04-27T12:34:01;101917.81;;;16.87;32.62
68230;BME280;55048;52.220;5.160;2023-04-27T12:36:27;101886.13;;;16.67;32.71
68230;BME280;55048;52.220;5.160;2023-04-27T12:38:57;101896.84;;;16.83;32.81
68230;BME280;55048;52.220;5.160;2023-04-27T12:41:23;101913.47;;;16.64;33.05
68230;BME280;55048;52.220;5.160;2023-04-27T12:43:49;101909.38;;;16.56;32.85
68230;BME280;55048;52.220;5.160;2023-04-27T12:46:14;101903.53;;;16.20;33.81
68230;BME280;55048;52.220;5.160;2023-04-27T12:48:40;101915.16;;;16.26;33.38
68230;BME280;55048;52.220;5.160;2023-04-27T12:51:06;101932.38;;;16.47;32.92
68230;BME280;55048;52.220;5.160;2023-04-27T12:53:31;101937.81;;;16.74;33.23
68230;BME280;55048;52.220;5.160;2023-04-27T12:55:58;101890.06;;;16.59;32.91
68230;BME280;55048;52.220;5.160;2023-04-27T12:58:26;101927.38;;;16.99;33.16
68230;BME280;55048;52.220;5.160;2023-04-27T13:00:54;101907.94;;;17.19;33.19
68230;BME280;55048;52.220;5.160;2023-04-27T13:03:22;101880.81;;;16.94;32.44